sensor_id;sensor_type;location;lat;lon;timestamp;pressure;altitude;pressure_sealevel;temperature;humidity
60373;BME280;46216;52.220;5.134;2023-03-23T00:01:53;100276.56;;;12.34;100.00
60373;BME280;46216;52.220;5.134;2023-03-23T00:04:18;100277.81;;;12.30;100.00
60373;BME280;46216;52.220;5.134;2023-03-23T00:06:44;100278.66;;;12.30;100.00
60373;BME280;46216;52.220;5.134;2023-03-23T00:09:11;100285.41;;;12.35;100.00
60373;BME280;46216;52.220;5.134;2023-03-23T00:11:37;100282.91;;;12.33;100.00
60373;BME280;46216;52.220;5.134;2023-03-23T00:14:04;100282.75;;;12.35;100.00
60373;BME280;46216;52.220;5.134;2023-03-23T00:16:32;100280.22;;;12.33;100.00
60373;BME280;46216;52.220;5.134;2023-03-23T00:19:04;100269.13;;;12.38;100.00
60373;BME280;46216;52.220;5.134;2023-03-23T00:21:32;100268.13;;;12.39;100.00
60373;BME280;46216;52.220;5.134;2023-03-23T00:24:16;100262.09;;;12.37;100.00
60373;BME280;46216;52.220;5.134;2023-03-23T00:26:46;100269.13;;;12.38;100.00
60373;BME280;46216;52.220;5.134;2023-03-23T00:29:15;100275.31;;;12.38;100.00
60373;BME280;46216;52.220;5.134;2023-03-23T00:31:42;100261.78;;;12.40;100.00
60373;BME280;46216;52.220;5.134;2023-03-23T00:34:16;100251.09;;;12.40;100.00
60373;BME280;46216;52.220;5.134;2023-03-23T00:36:54;100252.38;;;12.36;100.00
60373;BME280;46216;52.220;5.134;2023-03-23T00:39:22;100256.59;;;12.38;100.00
60373;BME280;46216;52.220;5.134;2023-03-23T00:41:49;100249.41;;;12.39;100.00
60373;BME280;46216;52.220;5.134;2023-03-23T00:44:15;100255.50;;;12.41;100.00
60373;BME280;46216;52.220;5.134;2023-03-23T00:46:47;100250.81;;;12.43;100.00
60373;BME280;46216;52.220;5.134;2023-03-23T00:49:17;100237.75;;;12.40;100.00
60373;BME280;46216;52.220;5.134;2023-03-23T00:51:43;100236.78;;;12.41;100.00
60373;BME280;46216;52.220;5.134;2023-03-23T00:54:09;100227.78;;;12.42;100.00
60373;BME280;46216;52.220;5.134;2023-03-23T00:56:35;100226.09;;;12.41;100.00
60373;BME280;46216;52.220;5.134;2023-03-23T00:59:01;100221.84;;;12.38;100.00
60373;BME280;46216;52.220;5.134;2023-03-23T01:01:27;100224.09;;;12.43;100.00
60373;BME280;46216;52.220;5.134;2023-03-23T01:03:53;100223.16;;;12.44;100.00
60373;BME280;46216;52.220;5.134;2023-03-23T01:06:26;100221.16;;;12.46;100.00
60373;BME280;46216;52.220;5.134;2023-03-23T01:08:52;100220.31;;;12.45;100.00
60373;BME280;46216;52.220;5.134;2023-03-23T01:11:19;100225.81;;;12.44;100.00
60373;BME280;46216;52.220;5.134;2023-03-23T01:13:45;100225.81;;;12.44;100.00
60373;BME280;46216;52.220;5.134;2023-03-23T01:16:11;100234.53;;;12.46;100.00
60373;BME280;46216;52.220;5.134;2023-03-23T01:18:37;100226.50;;;12.46;100.00
60373;BME280;46216;52.220;5.134;2023-03-23T01:21:11;100229.19;;;12.46;100.00
60373;BME280;46216;52.220;5.134;2023-03-23T01:23:38;100207.53;;;12.49;100.00
60373;BME280;46216;52.220;5.134;2023-03-23T01:28:30;100189.09;;;12.46;100.00
60373;BME280;46216;52.220;5.134;2023-03-23T01:31:02;100201.63;;;12.45;100.00
60373;BME280;46216;52.220;5.134;2023-03-23T01:33:29;100195.44;;;12.45;100.00
60373;BME280;46216;52.220;5.134;2023-03-23T01:35:54;100188.13;;;12.47;100.00
60373;BME280;46216;52.220;5.134;2023-03-23T01:38:20;100187.97;;;12.48;100.00
60373;BME280;46216;52.220;5.134;2023-03-23T01:40:46;100179.13;;;12.48;100.00
60373;BME280;46216;52.220;5.134;2023-03-23T01:43:13;100188.41;;;12.44;100.00
60373;BME280;46216;52.220;5.134;2023-03-23T01:45:40;100187.97;;;12.48;100.00
60373;BME280;46216;52.220;5.134;2023-03-23T01:50:45;100192.59;;;12.46;100.00
60373;BME280;46216;52.220;5.134;2023-03-23T01:53:12;100184.47;;;12.48;100.00
60373;BME280;46216;52.220;5.134;2023-03-23T01:55:40;100171.22;;;12.46;100.00
60373;BME280;46216;52.220;5.134;2023-03-23T01:58:07;100175.44;;;12.49;100.00
60373;BME280;46216;52.220;5.134;2023-03-23T02:00:34;100172.09;;;12.47;100.00
60373;BME280;46216;52.220;5.134;2023-03-23T02:03:00;100170.09;;;12.49;100.00
60373;BME280;46216;52.220;5.134;2023-03-23T02:05:30;100172.94;;;12.47;100.00
60373;BME280;46216;52.220;5.134;2023-03-23T02:07:59;100177.44;;;12.47;100.00
60373;BME280;46216;52.220;5.134;2023-03-23T02:10:29;100159.41;;;12.49;100.00
60373;BME280;46216;52.220;5.134;2023-03-23T02:12:55;100159.41;;;12.49;100.00
60373;BME280;46216;52.220;5.134;2023-03-23T02:15:21;100162.38;;;12.46;100.00
60373;BME280;46216;52.220;5.134;2023-03-23T02:18:16;100158.44;;;12.50;100.00
60373;BME280;46216;52.220;5.134;2023-03-23T02:26:28;100159.41;;;12.49;100.00
60373;BME280;46216;52.220;5.134;2023-03-23T02:32:15;100173.06;;;12.46;100.00
60373;BME280;46216;52.220;5.134;2023-03-23T02:34:48;100176.56;;;12.46;100.00
60373;BME280;46216;52.220;5.134;2023-03-23T02:37:21;100164.63;;;12.50;100.00
60373;BME280;46216;52.220;5.134;2023-03-23T02:39:52;100168.84;;;12.53;100.00
60373;BME280;46216;52.220;5.134;2023-03-23T02:42:26;100161.97;;;12.50;100.00
60373;BME280;46216;52.220;5.134;2023-03-23T02:44:54;100163.50;;;12.53;100.00
60373;BME280;46216;52.220;5.134;2023-03-23T02:47:23;100158.16;;;12.53;100.00
60373;BME280;46216;52.220;5.134;2023-03-23T02:49:52;100163.22;;;12.56;100.00
60373;BME280;46216;52.220;5.134;2023-03-23T02:52:21;100169.72;;;12.53;100.00
60373;BME280;46216;52.220;5.134;2023-03-23T02:54:48;100165.03;;;12.55;100.00
60373;BME280;46216;52.220;5.134;2023-03-23T02:57:16;100148.16;;;12.55;100.00
60373;BME280;46216;52.220;5.134;2023-03-23T02:59:42;100154.91;;;12.59;100.00
60373;BME280;46216;52.220;5.134;2023-03-23T03:02:29;100148.88;;;12.57;100.00
60373;BME280;46216;52.220;5.134;2023-03-23T03:07:58;100165.59;;;12.59;100.00
60373;BME280;46216;52.220;5.134;2023-03-23T03:10:46;100165.03;;;12.55;100.00
60373;BME280;46216;52.220;5.134;2023-03-23T03:16:30;100154.91;;;12.59;100.00
60373;BME280;46216;52.220;5.134;2023-03-23T03:21:37;100145.94;;;12.60;100.00
60373;BME280;46216;52.220;5.134;2023-03-23T03:24:05;100140.88;;;12.57;100.00
60373;BME280;46216;52.220;5.134;2023-03-23T03:26:39;100140.72;;;12.59;100.00
60373;BME280;46216;52.220;5.134;2023-03-23T03:29:06;100135.38;;;12.59;100.00
60373;BME280;46216;52.220;5.134;2023-03-23T03:31:36;100143.25;;;12.60;100.00
60373;BME280;46216;52.220;5.134;2023-03-23T03:34:04;100136.19;;;12.59;100.00
60373;BME280;46216;52.220;5.134;2023-03-23T03:36:31;100143.38;;;12.59;100.00
60373;BME280;46216;52.220;5.134;2023-03-23T03:39:02;100134.53;;;12.58;100.00
60373;BME280;46216;52.220;5.134;2023-03-23T03:41:30;100130.47;;;12.54;100.00
60373;BME280;46216;52.220;5.134;2023-03-23T03:43:55;100127.34;;;12.59;100.00
60373;BME280;46216;52.220;5.134;2023-03-23T03:46:20;100144.22;;;12.59;100.00
60373;BME280;46216;52.220;5.134;2023-03-23T03:48:46;100162.38;;;12.55;100.00
60373;BME280;46216;52.220;5.134;2023-03-23T03:51:11;100163.34;;;12.45;100.00
60373;BME280;46216;52.220;5.134;2023-03-23T03:53:36;100172.06;;;12.27;100.00
60373;BME280;46216;52.220;5.134;2023-03-23T03:56:02;100166.28;;;12.13;100.00
60373;BME280;46216;52.220;5.134;2023-03-23T03:58:28;100161.91;;;12.02;100.00
60373;BME280;46216;52.220;5.134;2023-03-23T04:00:59;100170.75;;;11.93;100.00
60373;BME280;46216;52.220;5.134;2023-03-23T04:03:25;100177.63;;;11.86;100.00
60373;BME280;46216;52.220;5.134;2023-03-23T04:05:53;100187.38;;;11.75;100.00
60373;BME280;46216;52.220;5.134;2023-03-23T04:08:21;100192.94;;;11.63;100.00
60373;BME280;46216;52.220;5.134;2023-03-23T04:10:47;100189.81;;;11.57;100.00
60373;BME280;46216;52.220;5.134;2023-03-23T04:13:13;100186.84;;;11.51;100.00
60373;BME280;46216;52.220;5.134;2023-03-23T04:15:39;100188.81;;;11.49;100.00
60373;BME280;46216;52.220;5.134;2023-03-23T04:18:04;100194.78;;;11.41;100.00
60373;BME280;46216;52.220;5.134;2023-03-23T04:20:31;100191.13;;;11.32;100.00
60373;BME280;46216;52.220;5.134;2023-03-23T04:22:56;100186.31;;;11.26;100.00
60373;BME280;46216;52.220;5.134;2023-03-23T04:25:21;100175.91;;;11.23;100.00
60373;BME280;46216;52.220;5.134;2023-03-23T04:27:48;100187.66;;;11.21;100.00
60373;BME280;46216;52.220;5.134;2023-03-23T04:30:18;100187.09;;;11.17;100.00
60373;BME280;46216;52.220;5.134;2023-03-23T04:32:44;100185.91;;;11.10;100.00
60373;BME280;46216;52.220;5.134;2023-03-23T04:35:12;100190.41;;;11.09;100.00
60373;BME280;46216;52.220;5.134;2023-03-23T04:37:38;100180.22;;;11.15;100.00
60373;BME280;46216;52.220;5.134;2023-03-23T04:40:05;100170.13;;;11.18;100.00
60373;BME280;46216;52.220;5.134;2023-03-23T04:42:40;100192.16;;;11.20;100.00
60373;BME280;46216;52.220;5.134;2023-03-23T04:45:07;100193.72;;;11.23;100.00
60373;BME280;46216;52.220;5.134;2023-03-23T04:47:35;100186.31;;;11.26;100.00
60373;BME280;46216;52.220;5.134;2023-03-23T04:50:10;100191.63;;;11.26;100.00
60373;BME280;46216;52.220;5.134;2023-03-23T04:52:37;100216.13;;;11.31;100.00
60373;BME280;46216;52.220;5.134;2023-03-23T04:55:08;100220.91;;;11.37;100.00
60373;BME280;46216;52.220;5.134;2023-03-23T04:57:34;100212.78;;;11.39;100.00
60373;BME280;46216;52.220;5.134;2023-03-23T05:00:01;100224.03;;;11.43;100.00
60373;BME280;46216;52.220;5.134;2023-03-23T05:02:30;100229.94;;;11.46;100.00
60373;BME280;46216;52.220;5.134;2023-03-23T05:04:56;100228.97;;;11.47;100.00
60373;BME280;46216;52.220;5.134;2023-03-23T05:07:23;100221.78;;;11.48;100.00
60373;BME280;46216;52.220;5.134;2023-03-23T05:09:49;100229.09;;;11.46;100.00
60373;BME280;46216;52.220;5.134;2023-03-23T05:12:14;100222.09;;;11.45;100.00
60373;BME280;46216;52.220;5.134;2023-03-23T05:14:41;100233.44;;;11.47;100.00
60373;BME280;46216;52.220;5.134;2023-03-23T05:17:06;100228.13;;;11.47;100.00
60373;BME280;46216;52.220;5.134;2023-03-23T05:19:32;100237.22;;;11.44;100.00
60373;BME280;46216;52.220;5.134;2023-03-23T05:21:58;100240.88;;;11.43;100.00
60373;BME280;46216;52.220;5.134;2023-03-23T05:24:31;100231.03;;;11.44;100.00
60373;BME280;46216;52.220;5.134;2023-03-23T05:26:58;100246.22;;;11.43;100.00
60373;BME280;46216;52.220;5.134;2023-03-23T05:29:24;100248.03;;;11.43;100.00
60373;BME280;46216;52.220;5.134;2023-03-23T05:31:51;100247.06;;;11.44;100.00
60373;BME280;46216;52.220;5.134;2023-03-23T05:34:18;100247.31;;;11.41;100.00
60373;BME280;46216;52.220;5.134;2023-03-23T05:36:44;100256.56;;;11.36;100.00
60373;BME280;46216;52.220;5.134;2023-03-23T05:39:13;100254.16;;;11.33;100.00
60373;BME280;46216;52.220;5.134;2023-03-23T05:41:39;100269.97;;;11.25;100.00
60373;BME280;46216;52.220;5.134;2023-03-23T05:44:05;100284.28;;;11.24;100.00
60373;BME280;46216;52.220;5.134;2023-03-23T05:46:30;100271.31;;;11.20;100.00
60373;BME280;46216;52.220;5.134;2023-03-23T05:48:56;100277.31;;;11.12;100.00
60373;BME280;46216;52.220;5.134;2023-03-23T05:51:21;100271.00;;;11.13;100.00
60373;BME280;46216;52.220;5.134;2023-03-23T05:53:46;100282.44;;;11.04;100.00
60373;BME280;46216;52.220;5.134;2023-03-23T05:56:13;100276.66;;;10.99;100.00
60373;BME280;46216;52.220;5.134;2023-03-23T05:58:39;100258.81;;;10.99;100.00
60373;BME280;46216;52.220;5.134;2023-03-23T06:01:08;100266.56;;;11.02;100.00
60373;BME280;46216;52.220;5.134;2023-03-23T06:03:33;100267.56;;;11.01;100.00
60373;BME280;46216;52.220;5.134;2023-03-23T06:06:02;100270.06;;;11.03;100.00
60373;BME280;46216;52.220;5.134;2023-03-23T06:08:28;100271.16;;;11.00;100.00
60373;BME280;46216;52.220;5.134;2023-03-23T06:10:54;100282.81;;;10.99;100.00
60373;BME280;46216;52.220;5.134;2023-03-23T06:13:20;100283.66;;;11.00;100.00
60373;BME280;46216;52.220;5.134;2023-03-23T06:15:46;100283.56;;;11.01;100.00
60373;BME280;46216;52.220;5.134;2023-03-23T06:18:13;100284.50;;;11.00;100.00
60373;BME280;46216;52.220;5.134;2023-03-23T06:20:39;100300.97;;;11.05;100.00
60373;BME280;46216;52.220;5.134;2023-03-23T06:23:06;100294.31;;;11.00;100.00
60373;BME280;46216;52.220;5.134;2023-03-23T06:25:32;100296.50;;;11.06;100.00
60373;BME280;46216;52.220;5.134;2023-03-23T06:27:58;100306.91;;;11.09;100.00
60373;BME280;46216;52.220;5.134;2023-03-23T06:30:24;100297.22;;;11.08;100.00
60373;BME280;46216;52.220;5.134;2023-03-23T06:32:50;100305.66;;;11.13;100.00
60373;BME280;46216;52.220;5.134;2023-03-23T06:35:15;100304.72;;;11.14;100.00
60373;BME280;46216;52.220;5.134;2023-03-23T06:37:41;100311.97;;;11.12;100.00
60373;BME280;46216;52.220;5.134;2023-03-23T06:40:07;100326.75;;;11.16;100.00
60373;BME280;46216;52.220;5.134;2023-03-23T06:42:33;100327.00;;;11.13;100.00
60373;BME280;46216;52.220;5.134;2023-03-23T06:44:59;100325.06;;;11.15;100.00
60373;BME280;46216;52.220;5.134;2023-03-23T06:47:29;100330.16;;;11.18;100.00
60373;BME280;46216;52.220;5.134;2023-03-23T06:49:55;100335.59;;;11.17;100.00
60373;BME280;46216;52.220;5.134;2023-03-23T06:52:22;100333.41;;;11.22;100.00
60373;BME280;46216;52.220;5.134;2023-03-23T06:54:49;100328.66;;;11.25;100.00
60373;BME280;46216;52.220;5.134;2023-03-23T06:57:14;100335.81;;;11.25;100.00
60373;BME280;46216;52.220;5.134;2023-03-23T06:59:40;100327.56;;;11.28;100.00
60373;BME280;46216;52.220;5.134;2023-03-23T07:02:11;100335.41;;;11.29;100.00
60373;BME280;46216;52.220;5.134;2023-03-23T07:04:38;100332.75;;;11.29;100.00
60373;BME280;46216;52.220;5.134;2023-03-23T07:07:04;100329.84;;;11.32;100.00
60373;BME280;46216;52.220;5.134;2023-03-23T07:09:30;100334.91;;;11.35;100.00
60373;BME280;46216;52.220;5.134;2023-03-23T07:11:56;100334.66;;;11.39;100.00
60373;BME280;46216;52.220;5.134;2023-03-23T07:14:21;100325.81;;;11.38;100.00
60373;BME280;46216;52.220;5.134;2023-03-23T07:16:47;100321.16;;;11.40;100.00
60373;BME280;46216;52.220;5.134;2023-03-23T07:19:12;100324.69;;;11.41;100.00
60373;BME280;46216;52.220;5.134;2023-03-23T07:21:38;100328.81;;;11.45;100.00
60373;BME280;46216;52.220;5.134;2023-03-23T07:24:03;100343.44;;;11.50;100.00
60373;BME280;46216;52.220;5.134;2023-03-23T07:26:29;100340.19;;;11.47;100.00
60373;BME280;46216;52.220;5.134;2023-03-23T07:28:54;100342.59;;;11.50;100.00
60373;BME280;46216;52.220;5.134;2023-03-23T07:31:19;100342.34;;;11.53;100.00
60373;BME280;46216;52.220;5.134;2023-03-23T07:33:45;100344.28;;;11.51;100.00
60373;BME280;46216;52.220;5.134;2023-03-23T07:36:11;100346.84;;;11.52;100.00
60373;BME280;46216;52.220;5.134;2023-03-23T07:38:37;100354.25;;;11.49;100.00
60373;BME280;46216;52.220;5.134;2023-03-23T07:41:02;100351.69;;;11.47;100.00
60373;BME280;46216;52.220;5.134;2023-03-23T07:43:28;100362.94;;;11.51;100.00
60373;BME280;46216;52.220;5.134;2023-03-23T07:45:56;100358.34;;;11.53;100.00
60373;BME280;46216;52.220;5.134;2023-03-23T07:48:22;100354.00;;;11.52;100.00
60373;BME280;46216;52.220;5.134;2023-03-23T07:50:47;100360.63;;;11.57;100.00
60373;BME280;46216;52.220;5.134;2023-03-23T07:53:13;100357.44;;;11.64;100.00
60373;BME280;46216;52.220;5.134;2023-03-23T07:55:38;100363.75;;;11.63;100.00
60373;BME280;46216;52.220;5.134;2023-03-23T07:58:03;100357.03;;;11.68;100.00
60373;BME280;46216;52.220;5.134;2023-03-23T08:00:29;100360.69;;;11.67;100.00
60373;BME280;46216;52.220;5.134;2023-03-23T08:02:56;100360.00;;;11.65;100.00
60373;BME280;46216;52.220;5.134;2023-03-23T08:05:22;100357.44;;;11.64;100.00
60373;BME280;46216;52.220;5.134;2023-03-23T08:07:49;100370.97;;;11.72;100.00
60373;BME280;46216;52.220;5.134;2023-03-23T08:10:15;100374.34;;;11.74;100.00
60373;BME280;46216;52.220;5.134;2023-03-23T08:12:43;100367.78;;;11.78;100.00
60373;BME280;46216;52.220;5.134;2023-03-23T08:15:10;100375.41;;;11.82;100.00
60373;BME280;46216;52.220;5.134;2023-03-23T08:17:42;100376.03;;;11.86;100.00
60373;BME280;46216;52.220;5.134;2023-03-23T08:20:09;100371.97;;;11.92;100.00
60373;BME280;46216;52.220;5.134;2023-03-23T08:22:42;100382.28;;;11.96;100.00
60373;BME280;46216;52.220;5.134;2023-03-23T08:25:11;100378.22;;;12.02;100.00
60373;BME280;46216;52.220;5.134;2023-03-23T08:27:37;100377.94;;;12.05;100.00
60373;BME280;46216;52.220;5.134;2023-03-23T08:30:04;100380.63;;;12.05;100.00
60373;BME280;46216;52.220;5.134;2023-03-23T08:32:31;100373.31;;;12.07;100.00
60373;BME280;46216;52.220;5.134;2023-03-23T08:34:56;100386.22;;;12.02;100.00
60373;BME280;46216;52.220;5.134;2023-03-23T08:37:22;100389.75;;;12.02;100.00
60373;BME280;46216;52.220;5.134;2023-03-23T08:39:51;100386.47;;;11.99;100.00
60373;BME280;46216;52.220;5.134;2023-03-23T08:42:17;100390.47;;;12.04;100.00
60373;BME280;46216;52.220;5.134;2023-03-23T08:44:43;100394.44;;;12.10;100.00
60373;BME280;46216;52.220;5.134;2023-03-23T08:47:09;100391.25;;;12.26;100.00
60373;BME280;46216;52.220;5.134;2023-03-23T08:49:35;100391.25;;;12.26;100.00
60373;BME280;46216;52.220;5.134;2023-03-23T08:52:00;100393.03;;;12.37;100.00
60373;BME280;46216;52.220;5.134;2023-03-23T08:54:26;100398.53;;;12.45;100.00
60373;BME280;46216;52.220;5.134;2023-03-23T08:56:51;100401.66;;;12.50;100.00
60373;BME280;46216;52.220;5.134;2023-03-23T08:59:17;100396.31;;;12.60;100.00
60373;BME280;46216;52.220;5.134;2023-03-23T09:01:43;100396.78;;;12.65;100.00
60373;BME280;46216;52.220;5.134;2023-03-23T09:04:08;100399.72;;;12.62;100.00
60373;BME280;46216;52.220;5.134;2023-03-23T09:06:36;100399.19;;;12.68;100.00
60373;BME280;46216;52.220;5.134;2023-03-23T09:09:02;100400.34;;;12.75;100.00
60373;BME280;46216;52.220;5.134;2023-03-23T09:11:35;100417.78;;;12.79;100.00
60373;BME280;46216;52.220;5.134;2023-03-23T09:14:02;100407.38;;;12.86;100.00
60373;BME280;46216;52.220;5.134;2023-03-23T09:16:28;100403.19;;;12.93;100.00
60373;BME280;46216;52.220;5.134;2023-03-23T09:18:53;100407.09;;;12.79;100.00
60373;BME280;46216;52.220;5.134;2023-03-23T09:21:20;100392.34;;;12.85;100.00
60373;BME280;46216;52.220;5.134;2023-03-23T09:23:46;100397.69;;;12.85;100.00
60373;BME280;46216;52.220;5.134;2023-03-23T09:26:13;100405.75;;;12.94;100.00
60373;BME280;46216;52.220;5.134;2023-03-23T09:28:40;100401.91;;;12.97;100.00
60373;BME280;46216;52.220;5.134;2023-03-23T09:31:05;100410.78;;;12.97;100.00
60373;BME280;46216;52.220;5.134;2023-03-23T09:33:31;100410.78;;;12.97;100.00
60373;BME280;46216;52.220;5.134;2023-03-23T09:36:00;100403.47;;;12.99;100.00
60373;BME280;46216;52.220;5.134;2023-03-23T09:38:27;100402.91;;;12.96;100.00
60373;BME280;46216;52.220;5.134;2023-03-23T09:41:24;100410.50;;;12.91;100.00
60373;BME280;46216;52.220;5.134;2023-03-23T09:44:06;100406.41;;;12.87;100.00
60373;BME280;46216;52.220;5.134;2023-03-23T09:49:19;100405.16;;;12.91;100.00
60373;BME280;46216;52.220;5.134;2023-03-23T09:52:37;100412.47;;;12.89;100.00
60373;BME280;46216;52.220;5.134;2023-03-23T09:54:42;100406.84;;;12.92;100.00
60373;BME280;46216;52.220;5.134;2023-03-23T09:57:18;100418.69;;;12.99;100.00
60373;BME280;46216;52.220;5.134;2023-03-23T10:03:20;100421.50;;;13.07;100.00
60373;BME280;46216;52.220;5.134;2023-03-23T10:05:51;100418.41;;;13.02;100.00
60373;BME280;46216;52.220;5.134;2023-03-23T10:08:23;100418.72;;;13.09;100.00
60373;BME280;46216;52.220;5.134;2023-03-23T10:16:50;100432.78;;;13.20;100.00
60373;BME280;46216;52.220;5.134;2023-03-23T10:19:32;100428.00;;;13.14;100.00
60373;BME280;46216;52.220;5.134;2023-03-23T10:22:03;100431.13;;;13.19;100.00
60373;BME280;46216;52.220;5.134;2023-03-23T10:30:02;100425.53;;;13.81;100.00
60373;BME280;46216;52.220;5.134;2023-03-23T10:32:42;100429.22;;;13.80;100.00
60373;BME280;46216;52.220;5.134;2023-03-23T10:35:22;100440.91;;;13.69;100.00
60373;BME280;46216;52.220;5.134;2023-03-23T10:37:56;100438.22;;;13.59;100.00
60373;BME280;46216;52.220;5.134;2023-03-23T10:40:25;100431.72;;;13.71;100.00
60373;BME280;46216;52.220;5.134;2023-03-23T10:42:52;100426.09;;;13.84;100.00
60373;BME280;46216;52.220;5.134;2023-03-23T10:45:23;100423.56;;;13.83;100.00
60373;BME280;46216;52.220;5.134;2023-03-23T10:47:55;100436.13;;;13.72;100.00
60373;BME280;46216;52.220;5.134;2023-03-23T10:50:25;100441.59;;;13.61;100.00
60373;BME280;46216;52.220;5.134;2023-03-23T10:52:53;100430.88;;;13.90;100.00
60373;BME280;46216;52.220;5.134;2023-03-23T10:55:22;100438.19;;;13.88;100.00
60373;BME280;46216;52.220;5.134;2023-03-23T10:58:00;100437.94;;;13.82;100.00
60373;BME280;46216;52.220;5.134;2023-03-23T11:00:27;100438.91;;;13.71;100.00
60373;BME280;46216;52.220;5.134;2023-03-23T11:03:20;100443.56;;;13.79;100.00
60373;BME280;46216;52.220;5.134;2023-03-23T11:05:54;100438.25;;;13.69;100.00
60373;BME280;46216;52.220;5.134;2023-03-23T11:08:24;100455.13;;;13.60;100.00
60373;BME280;46216;52.220;5.134;2023-03-23T11:11:06;100461.59;;;13.47;100.00
60373;BME280;46216;52.220;5.134;2023-03-23T11:13:32;100447.50;;;13.75;100.00
60373;BME280;46216;52.220;5.134;2023-03-23T11:15:58;100446.06;;;14.09;100.00
60373;BME280;46216;52.220;5.134;2023-03-23T11:20:54;100438.97;;;14.28;100.00
60373;BME280;46216;52.220;5.134;2023-03-23T11:23:31;100444.94;;;14.02;100.00
60373;BME280;46216;52.220;5.134;2023-03-23T11:25:58;100434.13;;;13.94;100.00
60373;BME280;46216;52.220;5.134;2023-03-23T11:28:32;100432.25;;;14.04;100.00
60373;BME280;46216;52.220;5.134;2023-03-23T11:31:01;100427.06;;;14.40;100.00
60373;BME280;46216;52.220;5.134;2023-03-23T11:33:36;100430.81;;;14.66;100.00
60373;BME280;46216;52.220;5.134;2023-03-23T11:36:05;100435.94;;;14.60;100.00
60373;BME280;46216;52.220;5.134;2023-03-23T11:38:32;100443.88;;;14.52;100.00
60373;BME280;46216;52.220;5.134;2023-03-23T11:40:59;100430.81;;;14.66;100.00
60373;BME280;46216;52.220;5.134;2023-03-23T11:43:24;100416.97;;;14.99;100.00
60373;BME280;46216;52.220;5.134;2023-03-23T11:46:01;100415.88;;;14.92;100.00
60373;BME280;46216;52.220;5.134;2023-03-23T11:56:36;100410.13;;;15.04;100.00
60373;BME280;46216;52.220;5.134;2023-03-23T11:59:03;100408.47;;;15.03;100.00
60373;BME280;46216;52.220;5.134;2023-03-23T12:07:59;100412.41;;;15.45;100.00
60373;BME280;46216;52.220;5.134;2023-03-23T12:10:52;100415.84;;;15.19;100.00
60373;BME280;46216;52.220;5.134;2023-03-23T12:16:29;100424.84;;;15.00;100.00
60373;BME280;46216;52.220;5.134;2023-03-23T12:22:05;100417.81;;;14.99;100.00
60373;BME280;46216;52.220;5.134;2023-03-23T12:25:30;100413.03;;;14.93;100.00
60373;BME280;46216;52.220;5.134;2023-03-23T12:28:19;100408.28;;;14.87;100.00
60373;BME280;46216;52.220;5.134;2023-03-23T12:36:27;100414.41;;;15.43;100.00
60373;BME280;46216;52.220;5.134;2023-03-23T12:44:39;100398.91;;;15.36;100.00
60373;BME280;46216;52.220;5.134;2023-03-23T12:47:13;100401.78;;;15.07;100.00
60373;BME280;46216;52.220;5.134;2023-03-23T12:49:49;100394.75;;;15.06;100.00
60373;BME280;46216;52.220;5.134;2023-03-23T12:55:25;100396.06;;;15.02;100.00
60373;BME280;46216;52.220;5.134;2023-03-23T12:57:57;100390.09;;;15.08;100.00
60373;BME280;46216;52.220;5.134;2023-03-23T13:00:57;100383.59;;;15.01;100.00
60373;BME280;46216;52.220;5.134;2023-03-23T13:06:11;100397.06;;;15.37;100.00
60373;BME280;46216;52.220;5.134;2023-03-23T13:08:47;100399.22;;;15.33;100.00
60373;BME280;46216;52.220;5.134;2023-03-23T13:11:23;100399.81;;;15.27;100.00
60373;BME280;46216;52.220;5.134;2023-03-23T13:14:05;100402.56;;;15.18;100.00
60373;BME280;46216;52.220;5.134;2023-03-23T13:19:22;100419.44;;;15.10;100.00
60373;BME280;46216;52.220;5.134;2023-03-23T13:21:59;100416.03;;;15.35;100.00
60373;BME280;46216;52.220;5.134;2023-03-23T13:24:30;100417.16;;;15.51;100.00
60373;BME280;46216;52.220;5.134;2023-03-23T13:26:56;100411.81;;;15.69;100.00
60373;BME280;46216;52.220;5.134;2023-03-23T13:29:24;100400.63;;;15.73;100.00
60373;BME280;46216;52.220;5.134;2023-03-23T13:31:50;100406.50;;;15.77;100.00
60373;BME280;46216;52.220;5.134;2023-03-23T13:34:18;100404.97;;;15.56;100.00
60373;BME280;46216;52.220;5.134;2023-03-23T13:36:55;100395.47;;;15.80;100.00
60373;BME280;46216;52.220;5.134;2023-03-23T13:39:26;100404.59;;;15.87;100.00
60373;BME280;46216;52.220;5.134;2023-03-23T13:42:04;100407.13;;;16.15;100.00
60373;BME280;46216;52.220;5.134;2023-03-23T13:49:53;100414.22;;;15.98;100.00
60373;BME280;46216;52.220;5.134;2023-03-23T13:52:35;100411.88;;;15.77;100.00
60373;BME280;46216;52.220;5.134;2023-03-23T13:57:58;100413.56;;;15.42;100.00
60373;BME280;46216;52.220;5.134;2023-03-23T14:00:36;100414.19;;;15.36;100.00
60373;BME280;46216;52.220;5.134;2023-03-23T14:03:24;100402.06;;;15.32;100.00
60373;BME280;46216;52.220;5.134;2023-03-23T14:06:01;100407.09;;;15.35;100.00
60373;BME280;46216;52.220;5.134;2023-03-23T14:10:56;100375.66;;;15.63;100.00
60373;BME280;46216;52.220;5.134;2023-03-23T14:13:33;100383.72;;;15.63;100.00
60373;BME280;46216;52.220;5.134;2023-03-23T14:16:04;100363.75;;;15.83;100.00
60373;BME280;46216;52.220;5.134;2023-03-23T14:18:38;100381.94;;;15.72;100.00
60373;BME280;46216;52.220;5.134;2023-03-23T14:21:06;100399.91;;;15.71;100.00
60373;BME280;46216;52.220;5.134;2023-03-23T14:23:33;100402.19;;;15.84;100.00
60373;BME280;46216;52.220;5.134;2023-03-23T14:26:02;100391.66;;;15.91;100.00